Time;durP1;ratioP1;P1;durP2;ratioP2;P2;SDS_P1;SDS_P2;PMS_P1;PMS_P2;Temp;Humidity;BMP_temperature;BMP_pressure;BME280_temperature;BME280_humidity;BME280_pressure;Samples;Min_cycle;Max_cycle;Signal;HPM_P1;HPM_P2
2023/05/14 08:27:01;;;;;;;;;0.00;0.00;;;;;;;;5062767;28;14294;-66
2023/05/14 08:29:26;;;;;;;;;0.50;0.50;;;;;;;;5044943;28;11446;-67
2023/05/14 08:31:54;;;;;;;;;0.00;0.00;;;;;;;;5044985;28;11535;-67
2023/05/14 08:34:22;;;;;;;;;0.50;0.00;;;;;;;;5045545;28;8961;-71
2023/05/14 08:36:47;;;;;;;;;1.25;0.25;;;;;;;;5053715;23;11526;-73
2023/05/14 08:39:13;;;;;;;;;0.00;0.00;;;;;;;;5005187;28;11509;-73
2023/05/14 08:41:39;;;;;;;;;1.25;0.00;;;;;;;;5006065;28;8779;-74
2023/05/14 08:44:12;;;;;;;;;0.75;0.75;;;;;;;;4996257;28;8814;-73
2023/05/14 08:46:37;;;;;;;;;1.00;0.00;;;;;;;;5006444;28;11433;-77
2023/05/14 08:49:18;;;;;;;;;0.00;0.00;;;;;;;;5006468;28;12182;-76
2023/05/14 08:51:47;;;;;;;;;0.00;0.00;;;;;;;;5005652;28;11461;-75
2023/05/14 08:54:15;;;;;;;;;1.75;0.25;;;;;;;;4994411;28;11432;-73
2023/05/14 08:56:42;;;;;;;;;1.00;1.00;;;;;;;;5008539;28;11407;-73
2023/05/14 08:59:07;;;;;;;;;1.00;1.00;;;;;;;;5005808;28;11528;-73
2023/05/14 09:01:33;;;;;;;;;2.00;2.00;;;;;;;;5004051;28;11563;-71
2023/05/14 09:04:00;;;;;;;;;2.00;1.00;;;;;;;;5007082;28;8815;-72
2023/05/14 09:06:26;;;;;;;;;4.00;2.75;;;;;;;;5008486;28;8861;-71
2023/05/14 09:08:51;;;;;;;;;3.00;3.00;;;;;;;;5003351;28;11419;-71
2023/05/14 09:11:17;;;;;;;;;1.00;1.00;;;;;;;;5005569;28;9024;-73
2023/05/14 09:13:42;;;;;;;;;0.25;0.25;;;;;;;;5005335;28;8959;-72
2023/05/14 09:16:07;;;;;;;;;0.00;0.00;;;;;;;;5005234;28;8918;-75
2023/05/14 09:18:34;;;;;;;;;1.00;0.00;;;;;;;;5003536;28;8798;-79
2023/05/14 09:21:00;;;;;;;;;1.00;1.00;;;;;;;;5005420;28;8835;-79
2023/05/14 09:23:25;;;;;;;;;30.50;28.75;;;;;;;;4994843;28;11666;-78
2023/05/14 09:25:51;;;;;;;;;10.75;10.00;;;;;;;;5004331;28;12301;-77
2023/05/14 09:28:17;;;;;;;;;20.50;17.50;;;;;;;;5005168;28;9056;-78
2023/05/14 09:30:45;;;;;;;;;2.00;1.75;;;;;;;;4994818;28;8825;-79
2023/05/14 09:33:11;;;;;;;;;0.00;0.00;;;;;;;;4989065;28;11517;-76
2023/05/14 09:35:39;;;;;;;;;0.50;0.00;;;;;;;;5007264;28;11440;-74
2023/05/14 09:38:04;;;;;;;;;0.25;0.00;;;;;;;;4991611;28;8859;-74
2023/05/14 09:40:29;;;;;;;;;1.00;1.00;;;;;;;;4991915;28;11173;-73
2023/05/14 09:42:55;;;;;;;;;0.00;0.00;;;;;;;;4992209;28;8811;-71
2023/05/14 09:45:20;;;;;;;;;0.75;0.00;;;;;;;;4992052;28;8846;-71
2023/05/14 09:47:45;;;;;;;;;1.00;1.00;;;;;;;;4990160;28;8830;-71
2023/05/14 09:50:11;;;;;;;;;1.00;1.00;;;;;;;;5006824;28;8823;-71
2023/05/14 09:52:37;;;;;;;;;1.00;1.00;;;;;;;;4991677;28;8819;-75
2023/05/14 09:55:02;;;;;;;;;0.00;0.00;;;;;;;;4991928;28;8822;-74
2023/05/14 09:57:28;;;;;;;;;0.25;0.25;;;;;;;;4991468;28;11357;-74
2023/05/14 09:59:53;;;;;;;;;2.00;2.00;;;;;;;;4990593;28;8818;-73
2023/05/14 10:02:26;;;;;;;;;1.25;1.25;;;;;;;;4991579;28;8807;-74
2023/05/14 10:04:57;;;;;;;;;2.75;1.75;;;;;;;;4992010;28;8807;-76
2023/05/14 10:07:28;;;;;;;;;1.75;1.75;;;;;;;;4991574;28;11109;-72
2023/05/14 10:09:56;;;;;;;;;2.00;1.00;;;;;;;;5006612;28;11176;-74
2023/05/14 10:12:22;;;;;;;;;4.50;2.00;;;;;;;;5011165;28;11187;-72
2023/05/14 10:14:52;;;;;;;;;2.00;2.00;;;;;;;;5011156;28;11485;-79
2023/05/14 10:17:18;;;;;;;;;15.75;12.75;;;;;;;;5010706;28;11569;-73
2023/05/14 10:19:51;;;;;;;;;5.00;2.50;;;;;;;;5007651;28;11497;-73
2023/05/14 10:22:17;;;;;;;;;2.00;2.00;;;;;;;;5010589;28;11403;-75
2023/05/14 10:24:44;;;;;;;;;11.00;10.00;;;;;;;;5010622;28;11501;-74
2023/05/14 10:27:10;;;;;;;;;6.75;5.50;;;;;;;;4991432;28;11601;-74
2023/05/14 10:29:36;;;;;;;;;1.00;1.00;;;;;;;;4989270;28;11552;-72
2023/05/14 10:32:05;;;;;;;;;3.00;3.00;;;;;;;;4990515;28;9578;-76
2023/05/14 10:34:36;;;;;;;;;2.00;2.00;;;;;;;;4990237;28;11395;-73
2023/05/14 10:37:02;;;;;;;;;1.75;1.75;;;;;;;;4990378;28;11550;-77
2023/05/14 10:39:40;;;;;;;;;1.75;1.75;;;;;;;;4987961;28;11140;-73
2023/05/14 10:42:05;;;;;;;;;2.00;1.00;;;;;;;;4990263;28;11300;-71
2023/05/14 10:44:34;;;;;;;;;0.25;0.00;;;;;;;;4990514;28;11032;-71
2023/05/14 10:46:59;;;;;;;;;0.00;0.00;;;;;;;;4990916;28;8850;-73
2023/05/14 10:49:25;;;;;;;;;0.50;0.50;;;;;;;;4985645;28;11953;-72
2023/05/14 10:51:51;;;;;;;;;0.00;0.00;;;;;;;;4989519;28;8849;-73
2023/05/14 10:54:17;;;;;;;;;1.50;1.50;;;;;;;;4990099;28;11119;-73
2023/05/14 10:56:44;;;;;;;;;26.25;22.25;;;;;;;;4990168;28;11181;-73
2023/05/14 10:59:10;;;;;;;;;36.50;28.25;;;;;;;;4988266;28;8817;-73
2023/05/14 11:01:35;;;;;;;;;70.50;52.25;;;;;;;;4990671;28;11587;-72
2023/05/14 11:04:01;;;;;;;;;300.00;261.00;;;;;;;;4990099;28;8803;-73
2023/05/14 11:06:27;;;;;;;;;56.50;44.50;;;;;;;;4990456;28;11663;-74
2023/05/14 11:08:53;;;;;;;;;89.33;70.67;;;;;;;;4989068;28;11694;-75
2023/05/14 11:11:18;;;;;;;;;36.00;30.25;;;;;;;;4990560;28;8814;-74
2023/05/14 11:13:43;;;;;;;;;6.50;4.25;;;;;;;;4989901;28;8819;-74
2023/05/14 11:16:09;;;;;;;;;28.75;22.25;;;;;;;;4990548;28;8860;-77
2023/05/14 11:18:37;;;;;;;;;18.00;16.00;;;;;;;;4992467;28;8866;-76
2023/05/14 11:21:02;;;;;;;;;9.25;9.00;;;;;;;;5010035;28;8816;-74
2023/05/14 11:23:28;;;;;;;;;1.00;0.00;;;;;;;;4990734;28;11645;-72
2023/05/14 11:25:54;;;;;;;;;2.25;2.25;;;;;;;;4978340;28;9617;-73
2023/05/14 11:28:23;;;;;;;;;0.00;0.00;;;;;;;;4988560;28;9582;-75
2023/05/14 11:30:49;;;;;;;;;0.25;0.25;;;;;;;;4989387;28;10883;-76
2023/05/14 11:33:14;;;;;;;;;1.50;1.50;;;;;;;;4989811;28;11116;-76
2023/05/14 11:35:41;;;;;;;;;1.00;1.00;;;;;;;;4990262;28;8928;-74
2023/05/14 11:38:12;;;;;;;;;0.00;0.00;;;;;;;;4987712;28;8873;-76
2023/05/14 11:40:38;;;;;;;;;0.00;0.00;;;;;;;;4987186;28;11631;-75
2023/05/14 11:43:03;;;;;;;;;0.50;0.00;;;;;;;;4987380;28;10970;-75
2023/05/14 11:45:31;;;;;;;;;2.75;2.75;;;;;;;;4988664;28;8858;-77
2023/05/14 11:47:57;;;;;;;;;5.25;5.25;;;;;;;;4994716;28;8887;-77
2023/05/14 11:50:22;;;;;;;;;9.50;7.75;;;;;;;;4988557;28;11875;-74
2023/05/14 11:52:49;;;;;;;;;8.50;5.00;;;;;;;;4987996;28;8921;-78
2023/05/14 11:55:15;;;;;;;;;8.50;8.50;;;;;;;;4989895;28;8928;-79
2023/05/14 11:57:41;;;;;;;;;5.25;5.25;;;;;;;;4987235;28;11179;-74
2023/05/14 12:00:07;;;;;;;;;6.00;6.00;;;;;;;;4987416;28;8810;-74
2023/05/14 12:02:32;;;;;;;;;7.00;5.25;;;;;;;;4987728;28;8936;-75
2023/05/14 12:04:59;;;;;;;;;5.50;5.50;;;;;;;;4987771;28;11223;-75
2023/05/14 12:07:27;;;;;;;;;0.75;0.75;;;;;;;;4987683;28;8815;-76
2023/05/14 12:09:53;;;;;;;;;3.00;0.75;;;;;;;;4987774;28;10837;-77
2023/05/14 12:12:20;;;;;;;;;0.00;0.00;;;;;;;;4987635;28;10704;-76
2023/05/14 12:14:45;;;;;;;;;0.00;0.00;;;;;;;;4989005;28;8929;-75
2023/05/14 12:17:15;;;;;;;;;1.00;1.00;;;;;;;;4989574;28;10785;-75
2023/05/14 12:19:41;;;;;;;;;1.00;1.00;;;;;;;;4989804;28;8949;-76
2023/05/14 12:22:07;;;;;;;;;1.00;1.00;;;;;;;;4989221;28;10864;-73
2023/05/14 12:24:32;;;;;;;;;0.00;0.00;;;;;;;;4989032;28;10840;-75
2023/05/14 12:27:00;;;;;;;;;5.00;2.50;;;;;;;;4988997;28;9565;-72
2023/05/14 12:29:25;;;;;;;;;0.75;0.75;;;;;;;;4988889;28;8838;-72
2023/05/14 12:31:50;;;;;;;;;2.25;2.00;;;;;;;;4988717;28;10760;-72
2023/05/14 12:34:16;;;;;;;;;1.75;1.00;;;;;;;;4989083;28;8888;-73
2023/05/14 12:36:41;;;;;;;;;0.00;0.00;;;;;;;;4988754;28;8861;-73
2023/05/14 12:39:07;;;;;;;;;0.00;0.00;;;;;;;;4988984;28;8849;-73
2023/05/14 12:41:32;;;;;;;;;0.00;0.00;;;;;;;;4989104;28;9544;-73
2023/05/14 12:43:58;;;;;;;;;0.00;0.00;;;;;;;;4987466;28;8807;-73
2023/05/14 12:46:24;;;;;;;;;0.00;0.00;;;;;;;;4989376;28;8803;-72
2023/05/14 12:48:50;;;;;;;;;0.00;0.00;;;;;;;;4988706;28;9044;-73
2023/05/14 12:51:15;;;;;;;;;2.75;2.75;;;;;;;;4988934;28;10596;-77
2023/05/14 12:53:40;;;;;;;;;0.00;0.00;;;;;;;;4988522;28;8913;-71
2023/05/14 12:56:06;;;;;;;;;0.00;0.00;;;;;;;;4988862;28;8831;-72
2023/05/14 12:58:31;;;;;;;;;1.00;0.00;;;;;;;;4988664;28;8803;-72
2023/05/14 13:00:56;;;;;;;;;1.00;0.00;;;;;;;;4987606;28;8823;-71
2023/05/14 13:03:22;;;;;;;;;1.00;1.00;;;;;;;;4988838;28;8945;-71
2023/05/14 13:05:47;;;;;;;;;0.00;0.00;;;;;;;;4988791;28;8779;-72
2023/05/14 13:08:16;;;;;;;;;0.00;0.00;;;;;;;;4988234;28;8853;-77
2023/05/14 13:10:42;;;;;;;;;0.00;0.00;;;;;;;;4989441;28;8933;-75
2023/05/14 13:13:08;;;;;;;;;0.00;0.00;;;;;;;;4990385;28;10557;-79
2023/05/14 13:15:34;;;;;;;;;0.00;0.00;;;;;;;;4991627;28;8847;-77
2023/05/14 13:17:59;;;;;;;;;0.00;0.00;;;;;;;;4992867;28;8818;-77
2023/05/14 13:20:26;;;;;;;;;0.00;0.00;;;;;;;;4992743;28;10579;-77
2023/05/14 13:22:51;;;;;;;;;11.00;11.00;;;;;;;;4992183;28;8881;-77
2023/05/14 13:25:16;;;;;;;;;1.75;1.75;;;;;;;;4991921;28;11502;-74
2023/05/14 13:27:42;;;;;;;;;1.00;0.00;;;;;;;;4992100;28;9572;-73
2023/05/14 13:30:07;;;;;;;;;0.00;0.00;;;;;;;;4991887;28;8799;-72
2023/05/14 13:32:32;;;;;;;;;0.00;0.00;;;;;;;;4992001;28;8926;-72
2023/05/14 13:34:58;;;;;;;;;0.00;0.00;;;;;;;;4992084;28;8830;-72
2023/05/14 13:37:23;;;;;;;;;8.00;7.00;;;;;;;;4991476;28;9574;-72
2023/05/14 13:39:49;;;;;;;;;0.00;0.00;;;;;;;;4991972;28;9530;-73
2023/05/14 13:42:14;;;;;;;;;6.00;5.75;;;;;;;;4991385;28;8826;-73
2023/05/14 13:44:39;;;;;;;;;3.00;2.00;;;;;;;;4992278;28;8814;-73
2023/05/14 13:47:07;;;;;;;;;4.75;2.25;;;;;;;;4992045;28;8861;-72
2023/05/14 13:49:32;;;;;;;;;0.25;0.25;;;;;;;;4992049;28;8841;-73
2023/05/14 13:51:58;;;;;;;;;5.75;3.00;;;;;;;;4991453;28;10797;-72
2023/05/14 13:54:26;;;;;;;;;1.25;1.25;;;;;;;;4991622;28;8984;-72
2023/05/14 13:56:51;;;;;;;;;0.00;0.00;;;;;;;;4991351;28;8838;-76
2023/05/14 13:59:17;;;;;;;;;2.00;2.00;;;;;;;;4991230;28;10611;-73
2023/05/14 14:01:42;;;;;;;;;1.25;1.25;;;;;;;;4991495;28;8822;-77
2023/05/14 14:04:08;;;;;;;;;2.50;1.25;;;;;;;;4991630;28;9506;-80
2023/05/14 14:06:33;;;;;;;;;0.00;0.00;;;;;;;;4988867;28;8814;-73
2023/05/14 14:08:59;;;;;;;;;0.75;0.75;;;;;;;;5014558;28;10277;-79
2023/05/14 14:11:25;;;;;;;;;0.00;0.00;;;;;;;;5011091;28;8843;-75
2023/05/14 14:13:50;;;;;;;;;0.00;0.00;;;;;;;;5011079;28;9061;-80
2023/05/14 14:16:15;;;;;;;;;0.00;0.00;;;;;;;;5011024;28;9564;-73
2023/05/14 14:18:41;;;;;;;;;0.00;0.00;;;;;;;;4981170;28;8972;-76
2023/05/14 14:21:07;;;;;;;;;0.00;0.00;;;;;;;;4981827;28;8819;-75
2023/05/14 14:23:32;;;;;;;;;0.00;0.00;;;;;;;;4991220;28;10278;-75
2023/05/14 14:25:57;;;;;;;;;0.75;0.00;;;;;;;;4991350;28;8811;-75
2023/05/14 14:28:23;;;;;;;;;0.00;0.00;;;;;;;;4991210;28;8861;-76
2023/05/14 14:30:49;;;;;;;;;1.00;0.00;;;;;;;;4988920;28;8949;-75
2023/05/14 14:33:14;;;;;;;;;2.00;0.00;;;;;;;;4990720;28;8905;-72
2023/05/14 14:35:39;;;;;;;;;0.00;0.00;;;;;;;;4990490;28;8855;-72
2023/05/14 14:38:05;;;;;;;;;0.00;0.00;;;;;;;;4998743;23;8873;-68
2023/05/14 14:40:31;;;;;;;;;0.00;0.00;;;;;;;;4985090;28;8835;-69
2023/05/14 14:42:56;;;;;;;;;0.00;0.00;;;;;;;;4981563;28;8848;-67
2023/05/14 14:45:22;;;;;;;;;0.00;0.00;;;;;;;;4980236;28;10215;-68
2023/05/14 14:47:47;;;;;;;;;0.00;0.00;;;;;;;;4982381;28;9526;-68
2023/05/14 14:50:13;;;;;;;;;0.00;0.00;;;;;;;;4984239;28;8882;-65
2023/05/14 14:52:38;;;;;;;;;0.00;0.00;;;;;;;;4980398;28;8884;-68
2023/05/14 14:55:04;;;;;;;;;0.50;0.50;;;;;;;;4984170;28;8822;-68
2023/05/14 14:57:29;;;;;;;;;0.00;0.00;;;;;;;;4982770;28;8914;-69
2023/05/14 14:59:55;;;;;;;;;1.00;0.00;;;;;;;;4981034;28;8841;-69
2023/05/14 15:02:20;;;;;;;;;1.00;0.00;;;;;;;;4982782;28;8945;-69
2023/05/14 15:04:45;;;;;;;;;1.00;0.00;;;;;;;;4979666;28;8817;-68
2023/05/14 15:07:11;;;;;;;;;0.00;0.00;;;;;;;;4981291;28;8803;-72
2023/05/14 15:09:36;;;;;;;;;0.00;0.00;;;;;;;;4981132;28;8826;-69
2023/05/14 15:12:01;;;;;;;;;0.00;0.00;;;;;;;;4981160;28;8815;-68
2023/05/14 15:14:27;;;;;;;;;0.00;0.00;;;;;;;;4981736;28;8815;-68
2023/05/14 15:16:52;;;;;;;;;1.00;1.00;;;;;;;;4980568;28;8825;-69
2023/05/14 15:19:17;;;;;;;;;0.75;0.00;;;;;;;;4980383;28;8803;-69
2023/05/14 15:21:43;;;;;;;;;0.25;0.00;;;;;;;;4982709;28;8798;-69
2023/05/14 15:24:14;;;;;;;;;1.00;0.00;;;;;;;;4980067;28;8817;-68
2023/05/14 15:26:40;;;;;;;;;0.00;0.00;;;;;;;;4984873;28;8833;-67
2023/05/14 15:29:06;;;;;;;;;0.00;0.00;;;;;;;;4981590;28;10182;-68
2023/05/14 15:31:32;;;;;;;;;1.00;1.00;;;;;;;;4982737;28;8821;-68
2023/05/14 15:33:57;;;;;;;;;2.00;2.00;;;;;;;;4980212;28;8807;-68
2023/05/14 15:36:22;;;;;;;;;13.50;12.00;;;;;;;;4980936;28;8816;-69
2023/05/14 15:38:48;;;;;;;;;22.75;21.00;;;;;;;;4979052;28;9572;-70
2023/05/14 15:41:13;;;;;;;;;12.00;11.00;;;;;;;;4981188;28;8811;-70
2023/05/14 15:43:38;;;;;;;;;6.75;6.00;;;;;;;;4980318;28;8922;-69
2023/05/14 15:46:04;;;;;;;;;4.50;3.00;;;;;;;;4979110;28;9596;-78
2023/05/14 15:48:30;;;;;;;;;3.00;3.00;;;;;;;;4979188;28;8811;-70
2023/05/14 15:50:55;;;;;;;;;4.50;3.00;;;;;;;;4982065;28;8829;-72
2023/05/14 15:53:20;;;;;;;;;0.25;0.25;;;;;;;;4977612;28;8808;-68
2023/05/14 15:55:49;;;;;;;;;2.00;1.00;;;;;;;;4987287;28;8973;-68
2023/05/14 15:58:15;;;;;;;;;0.50;0.50;;;;;;;;4980131;28;8786;-68
2023/05/14 16:00:40;;;;;;;;;1.00;1.00;;;;;;;;4979042;28;10894;-68
2023/05/14 16:03:05;;;;;;;;;1.75;1.00;;;;;;;;4980904;28;8787;-71
2023/05/14 16:05:30;;;;;;;;;0.00;0.00;;;;;;;;4978953;28;8801;-69
2023/05/14 16:07:56;;;;;;;;;1.00;1.00;;;;;;;;4978729;28;8941;-69
2023/05/14 16:10:21;;;;;;;;;0.00;0.00;;;;;;;;4981624;28;8811;-71
2023/05/14 16:12:46;;;;;;;;;0.00;0.00;;;;;;;;4978755;28;9536;-72
2023/05/14 16:15:12;;;;;;;;;0.75;0.00;;;;;;;;4979809;28;8826;-75
2023/05/14 16:17:37;;;;;;;;;0.50;0.50;;;;;;;;4980298;28;8793;-73
2023/05/14 16:20:03;;;;;;;;;1.75;1.00;;;;;;;;4981549;28;8797;-70
2023/05/14 16:22:31;;;;;;;;;1.00;0.00;;;;;;;;4979709;28;8834;-74
2023/05/14 16:24:56;;;;;;;;;0.25;0.25;;;;;;;;4985974;28;10123;-71
2023/05/14 16:27:21;;;;;;;;;2.50;1.00;;;;;;;;4984684;28;10190;-69
2023/05/14 16:29:47;;;;;;;;;0.00;0.00;;;;;;;;4977801;28;8922;-71
2023/05/14 16:32:12;;;;;;;;;3.50;2.50;;;;;;;;4990601;28;8841;-69
2023/05/14 16:34:37;;;;;;;;;20.25;16.75;;;;;;;;4986018;28;8937;-69
2023/05/14 16:37:03;;;;;;;;;4.00;4.00;;;;;;;;4980481;28;8872;-69
2023/05/14 16:39:28;;;;;;;;;11.25;7.00;;;;;;;;4978875;28;8830;-68
2023/05/14 16:41:54;;;;;;;;;3.00;2.00;;;;;;;;4978581;28;8824;-72
2023/05/14 16:44:19;;;;;;;;;0.75;0.50;;;;;;;;4976935;28;8814;-75
2023/05/14 16:46:45;;;;;;;;;1.00;1.00;;;;;;;;4979252;28;8969;-75
2023/05/14 16:49:10;;;;;;;;;1.25;1.25;;;;;;;;4983591;28;8961;-69
2023/05/14 16:51:41;;;;;;;;;2.00;2.00;;;;;;;;4987634;28;8928;-70
2023/05/14 16:54:13;;;;;;;;;1.00;1.00;;;;;;;;4982804;28;8968;-70
2023/05/14 16:56:39;;;;;;;;;1.00;0.00;;;;;;;;4988162;28;10377;-70
2023/05/14 16:59:06;;;;;;;;;0.50;0.50;;;;;;;;4983876;28;10180;-71
2023/05/14 17:01:31;;;;;;;;;0.00;0.00;;;;;;;;4985349;28;8964;-70
2023/05/14 17:03:57;;;;;;;;;3.75;0.00;;;;;;;;4981869;28;10275;-71
2023/05/14 17:06:22;;;;;;;;;2.00;0.00;;;;;;;;4982305;28;8841;-70
2023/05/14 17:08:47;;;;;;;;;0.00;0.00;;;;;;;;4984001;28;8846;-69
2023/05/14 17:11:12;;;;;;;;;0.75;0.75;;;;;;;;4984462;28;8823;-73
2023/05/14 17:13:38;;;;;;;;;1.00;1.00;;;;;;;;4982315;28;8889;-72
2023/05/14 17:16:03;;;;;;;;;3.00;1.75;;;;;;;;4983379;28;9664;-72
2023/05/14 17:18:28;;;;;;;;;1.75;1.00;;;;;;;;4981733;28;8890;-72
2023/05/14 17:20:53;;;;;;;;;2.00;2.00;;;;;;;;4983448;28;8991;-73
2023/05/14 17:23:19;;;;;;;;;5.00;3.25;;;;;;;;4983147;28;8797;-71
2023/05/14 17:25:44;;;;;;;;;4.00;4.00;;;;;;;;4988133;28;9580;-72
2023/05/14 17:28:09;;;;;;;;;11.25;9.75;;;;;;;;4981803;28;8828;-72
2023/05/14 17:30:35;;;;;;;;;33.25;32.00;;;;;;;;4985494;28;8871;-72
2023/05/14 17:33:00;;;;;;;;;10.00;7.25;;;;;;;;4983578;28;8837;-72
2023/05/14 17:35:25;;;;;;;;;3.75;3.75;;;;;;;;4983250;28;8846;-73
2023/05/14 17:37:51;;;;;;;;;2.00;2.00;;;;;;;;4981752;28;8849;-73
2023/05/14 17:40:16;;;;;;;;;1.00;1.00;;;;;;;;4985408;28;8826;-73
2023/05/14 17:42:44;;;;;;;;;1.50;1.50;;;;;;;;4986862;28;9559;-75
2023/05/14 17:45:09;;;;;;;;;7.00;3.00;;;;;;;;4981200;28;8868;-74
2023/05/14 17:47:35;;;;;;;;;6.25;3.25;;;;;;;;4982303;28;10781;-73
2023/05/14 17:50:00;;;;;;;;;8.00;7.00;;;;;;;;4981081;28;8815;-73
2023/05/14 17:52:25;;;;;;;;;3.00;3.00;;;;;;;;4981071;28;8802;-73
2023/05/14 17:54:51;;;;;;;;;4.75;2.25;;;;;;;;4982463;28;8842;-71
2023/05/14 17:57:16;;;;;;;;;3.00;2.50;;;;;;;;4986034;28;8823;-72
2023/05/14 17:59:42;;;;;;;;;14.00;11.00;;;;;;;;4980530;28;8948;-73
2023/05/14 18:02:07;;;;;;;;;8.75;7.75;;;;;;;;4982364;28;9475;-72
2023/05/14 18:04:32;;;;;;;;;6.75;5.00;;;;;;;;4982338;28;8913;-73
2023/05/14 18:06:59;;;;;;;;;4.25;3.00;;;;;;;;4980761;28;8829;-73
2023/05/14 18:09:25;;;;;;;;;4.25;3.50;;;;;;;;4979355;28;8837;-69
2023/05/14 18:11:50;;;;;;;;;10.75;9.00;;;;;;;;4990401;28;11049;-73
2023/05/14 18:14:17;;;;;;;;;27.00;23.75;;;;;;;;4981321;28;8810;-73
2023/05/14 18:16:42;;;;;;;;;56.50;45.25;;;;;;;;4980520;28;8846;-72
2023/05/14 18:19:08;;;;;;;;;65.75;53.25;;;;;;;;4982078;28;11606;-75
2023/05/14 18:21:33;;;;;;;;;41.50;36.50;;;;;;;;4988697;28;8817;-73
2023/05/14 18:23:59;;;;;;;;;28.50;23.50;;;;;;;;4980854;28;8825;-76
2023/05/14 18:26:25;;;;;;;;;11.00;11.00;;;;;;;;4981990;28;8860;-75
2023/05/14 18:28:51;;;;;;;;;2.00;2.00;;;;;;;;4981834;28;8834;-77
2023/05/14 18:31:16;;;;;;;;;2.50;2.50;;;;;;;;4980454;28;10959;-76
2023/05/14 18:33:41;;;;;;;;;3.75;3.00;;;;;;;;4982604;28;8845;-72
2023/05/14 18:36:07;;;;;;;;;5.50;5.50;;;;;;;;4980237;28;8853;-70
2023/05/14 18:38:32;;;;;;;;;1.75;1.75;;;;;;;;4981582;28;8936;-69
2023/05/14 18:40:57;;;;;;;;;2.00;2.00;;;;;;;;4980776;28;9651;-69
2023/05/14 18:43:23;;;;;;;;;5.25;5.00;;;;;;;;4981746;28;8829;-70
2023/05/14 18:45:48;;;;;;;;;1.75;1.00;;;;;;;;4980295;28;8822;-69
2023/05/14 18:48:15;;;;;;;;;2.50;2.25;;;;;;;;4980366;28;8813;-70
2023/05/14 18:50:40;;;;;;;;;5.00;3.00;;;;;;;;4985491;28;8814;-70
2023/05/14 18:53:05;;;;;;;;;2.75;2.75;;;;;;;;4982824;28;11126;-69
2023/05/14 18:55:31;;;;;;;;;7.00;6.50;;;;;;;;4984553;28;8854;-63
2023/05/14 18:57:56;;;;;;;;;3.00;1.75;;;;;;;;4979883;28;8818;-67
2023/05/14 19:00:22;;;;;;;;;1.50;1.50;;;;;;;;4985273;28;8838;-66
2023/05/14 19:02:47;;;;;;;;;2.00;1.00;;;;;;;;4981069;28;8938;-68
2023/05/14 19:05:12;;;;;;;;;5.75;5.75;;;;;;;;4981682;28;8811;-69
2023/05/14 19:07:39;;;;;;;;;5.00;5.00;;;;;;;;4980974;28;8863;-67
2023/05/14 19:10:05;;;;;;;;;2.50;2.50;;;;;;;;4983059;28;8810;-68
2023/05/14 19:12:30;;;;;;;;;0.00;0.00;;;;;;;;4990783;28;11262;-66
2023/05/14 19:14:56;;;;;;;;;0.00;0.00;;;;;;;;4988366;28;8818;-66
2023/05/14 19:17:21;;;;;;;;;0.00;0.00;;;;;;;;4977196;28;8889;-66
2023/05/14 19:19:47;;;;;;;;;1.00;0.00;;;;;;;;4984608;28;8826;-66
2023/05/14 19:22:12;;;;;;;;;0.00;0.00;;;;;;;;4990757;28;8889;-66
2023/05/14 19:24:37;;;;;;;;;0.00;0.00;;;;;;;;4975346;28;8813;-71
2023/05/14 19:27:03;;;;;;;;;2.00;0.00;;;;;;;;4991191;28;9631;-65
2023/05/14 19:29:31;;;;;;;;;0.00;0.00;;;;;;;;4988111;28;8807;-65
2023/05/14 19:31:56;;;;;;;;;0.00;0.00;;;;;;;;4988548;28;8933;-66
2023/05/14 19:34:21;;;;;;;;;0.50;0.50;;;;;;;;4985928;28;11079;-66
2023/05/14 19:36:47;;;;;;;;;0.00;0.00;;;;;;;;4985222;28;8846;-68
2023/05/14 19:39:12;;;;;;;;;2.00;0.00;;;;;;;;4987125;28;8823;-68
2023/05/14 19:41:37;;;;;;;;;0.25;0.00;;;;;;;;4986956;28;8814;-69
2023/05/14 19:44:03;;;;;;;;;0.00;0.00;;;;;;;;4988848;28;8795;-70
2023/05/14 19:46:28;;;;;;;;;0.25;0.25;;;;;;;;4989067;28;8791;-69
2023/05/14 19:48:53;;;;;;;;;4.00;4.00;;;;;;;;4990108;28;8791;-69
2023/05/14 19:51:18;;;;;;;;;3.00;1.00;;;;;;;;4990120;28;8901;-70
2023/05/14 19:53:44;;;;;;;;;2.00;2.00;;;;;;;;4986711;28;8824;-70
2023/05/14 19:56:09;;;;;;;;;3.00;3.00;;;;;;;;4979307;28;8841;-70
2023/05/14 19:58:35;;;;;;;;;3.00;1.00;;;;;;;;4978953;28;8809;-69
2023/05/14 20:01:03;;;;;;;;;3.00;1.75;;;;;;;;4979402;28;8798;-71
2023/05/14 20:03:28;;;;;;;;;0.75;0.75;;;;;;;;4980050;28;8798;-69
2023/05/14 20:05:54;;;;;;;;;0.00;0.00;;;;;;;;4976660;28;11519;-71
2023/05/14 20:08:23;;;;;;;;;3.00;1.00;;;;;;;;4979195;28;8806;-69
2023/05/14 20:10:49;;;;;;;;;0.00;0.00;;;;;;;;4979648;28;8799;-69
2023/05/14 20:13:14;;;;;;;;;1.00;1.00;;;;;;;;4979017;28;11090;-69
2023/05/14 20:15:40;;;;;;;;;0.00;0.00;;;;;;;;4976747;28;8837;-72
2023/05/14 20:18:05;;;;;;;;;0.00;0.00;;;;;;;;4978101;28;8825;-71
2023/05/14 20:20:31;;;;;;;;;1.00;1.00;;;;;;;;4979085;28;9530;-67
2023/05/14 20:22:56;;;;;;;;;0.75;0.75;;;;;;;;4980682;28;9564;-69
2023/05/14 20:25:21;;;;;;;;;1.00;1.00;;;;;;;;4980317;28;8823;-68
2023/05/14 20:27:47;;;;;;;;;1.00;1.00;;;;;;;;4964760;28;9805;-69
2023/05/14 20:30:12;;;;;;;;;0.00;0.00;;;;;;;;4950902;28;8907;-67
2023/05/14 20:32:37;;;;;;;;;1.00;1.00;;;;;;;;4950699;28;8933;-67
2023/05/14 20:35:06;;;;;;;;;1.00;0.00;;;;;;;;4950574;28;8832;-66
2023/05/14 20:37:31;;;;;;;;;2.75;0.00;;;;;;;;4964039;28;8861;-68
2023/05/14 20:39:57;;;;;;;;;0.00;0.00;;;;;;;;4960698;28;11472;-67
2023/05/14 20:42:23;;;;;;;;;0.00;0.00;;;;;;;;4961074;28;8923;-70
2023/05/14 20:44:49;;;;;;;;;0.50;0.00;;;;;;;;4960854;28;8798;-68
2023/05/14 20:47:18;;;;;;;;;1.00;1.00;;;;;;;;4961809;28;8946;-68
2023/05/14 20:49:44;;;;;;;;;1.50;1.00;;;;;;;;4959559;28;11470;-67
2023/05/14 20:52:09;;;;;;;;;5.00;1.00;;;;;;;;4959452;28;11443;-68
2023/05/14 20:54:35;;;;;;;;;4.50;2.25;;;;;;;;4960725;28;8822;-67
2023/05/14 20:57:00;;;;;;;;;2.00;1.00;;;;;;;;4963740;28;9651;-67
2023/05/14 20:59:26;;;;;;;;;1.00;1.00;;;;;;;;4951448;28;8820;-68
2023/05/14 21:01:51;;;;;;;;;1.75;1.75;;;;;;;;4951721;28;8955;-68
2023/05/14 21:04:16;;;;;;;;;1.50;1.50;;;;;;;;4969433;28;8836;-68
2023/05/14 21:06:42;;;;;;;;;4.00;2.00;;;;;;;;4969836;28;8809;-67
2023/05/14 21:09:07;;;;;;;;;3.50;3.50;;;;;;;;4969772;28;8825;-67
2023/05/14 21:11:32;;;;;;;;;8.00;5.00;;;;;;;;4969639;28;8809;-67
2023/05/14 21:13:57;;;;;;;;;8.00;4.75;;;;;;;;4968154;28;8809;-68
2023/05/14 21:16:23;;;;;;;;;5.00;5.00;;;;;;;;4969312;28;8833;-68
2023/05/14 21:18:48;;;;;;;;;6.00;4.75;;;;;;;;4969452;28;9602;-68
2023/05/14 21:21:13;;;;;;;;;3.25;3.25;;;;;;;;4969614;28;8798;-66
2023/05/14 21:23:39;;;;;;;;;8.00;5.00;;;;;;;;4969720;28;8797;-67
2023/05/14 21:26:04;;;;;;;;;5.50;4.00;;;;;;;;4968066;28;8814;-67
2023/05/14 21:28:30;;;;;;;;;3.25;3.25;;;;;;;;4968563;28;8821;-67
2023/05/14 21:30:55;;;;;;;;;2.50;2.00;;;;;;;;4968139;28;8860;-66
2023/05/14 21:33:22;;;;;;;;;4.00;3.00;;;;;;;;4970372;28;8903;-65
2023/05/14 21:35:47;;;;;;;;;3.00;3.00;;;;;;;;4972683;28;8991;-67
2023/05/14 21:38:13;;;;;;;;;3.25;3.25;;;;;;;;4971464;28;12202;-67
2023/05/14 21:40:38;;;;;;;;;3.00;3.00;;;;;;;;4969076;28;8937;-67
2023/05/14 21:43:03;;;;;;;;;5.00;5.00;;;;;;;;4971871;28;8979;-67
2023/05/14 21:45:29;;;;;;;;;4.00;4.00;;;;;;;;4970925;28;8831;-67
2023/05/14 21:47:54;;;;;;;;;3.00;3.00;;;;;;;;4970877;28;8844;-67
2023/05/14 21:50:19;;;;;;;;;3.00;3.00;;;;;;;;4970705;28;8951;-67
2023/05/14 21:52:45;;;;;;;;;6.00;6.00;;;;;;;;4970621;28;8936;-67
2023/05/14 21:55:10;;;;;;;;;3.00;3.00;;;;;;;;4973229;28;9069;-68
2023/05/14 21:57:36;;;;;;;;;5.00;4.00;;;;;;;;4990124;28;8783;-68
2023/05/14 22:00:03;;;;;;;;;4.75;3.50;;;;;;;;4991633;28;8819;-68
2023/05/14 22:02:28;;;;;;;;;3.25;3.25;;;;;;;;4992137;28;9138;-68
2023/05/14 22:04:53;;;;;;;;;2.00;2.00;;;;;;;;4992232;28;11538;-67
2023/05/14 22:07:19;;;;;;;;;3.75;3.75;;;;;;;;4992214;28;8795;-67
2023/05/14 22:09:44;;;;;;;;;3.00;3.00;;;;;;;;4985497;28;8813;-68
2023/05/14 22:12:09;;;;;;;;;3.00;3.00;;;;;;;;4972081;28;8891;-67
2023/05/14 22:14:35;;;;;;;;;3.00;3.00;;;;;;;;4972485;28;8817;-68
2023/05/14 22:17:00;;;;;;;;;4.00;4.00;;;;;;;;4971153;28;8841;-68
2023/05/14 22:19:26;;;;;;;;;3.00;3.00;;;;;;;;4972497;28;8913;-67
2023/05/14 22:21:52;;;;;;;;;4.00;3.00;;;;;;;;4972282;28;8836;-66
2023/05/14 22:24:17;;;;;;;;;3.50;3.50;;;;;;;;4972518;28;11443;-67
2023/05/14 22:26:43;;;;;;;;;7.00;5.00;;;;;;;;4986356;28;8849;-68
2023/05/14 22:29:08;;;;;;;;;4.00;4.00;;;;;;;;4990509;28;8922;-67
2023/05/14 22:31:33;;;;;;;;;3.75;3.75;;;;;;;;4991290;28;8798;-67
2023/05/14 22:33:58;;;;;;;;;4.00;3.75;;;;;;;;4991844;28;9557;-66
2023/05/14 22:36:24;;;;;;;;;7.75;5.00;;;;;;;;4991729;28;8835;-68
2023/05/14 22:38:49;;;;;;;;;3.25;3.25;;;;;;;;4991378;28;8859;-68
2023/05/14 22:41:16;;;;;;;;;8.00;4.00;;;;;;;;4972848;28;9872;-68
2023/05/14 22:43:41;;;;;;;;;7.25;4.75;;;;;;;;4972136;28;8972;-68
2023/05/14 22:46:07;;;;;;;;;4.00;4.00;;;;;;;;4972305;28;11449;-68
2023/05/14 22:48:32;;;;;;;;;4.00;4.00;;;;;;;;4972006;28;9598;-69
2023/05/14 22:50:57;;;;;;;;;4.00;3.75;;;;;;;;4971419;28;8813;-68
2023/05/14 22:53:23;;;;;;;;;4.00;4.00;;;;;;;;4971861;28;8815;-67
2023/05/14 22:55:48;;;;;;;;;3.00;3.00;;;;;;;;4979679;28;8916;-67
2023/05/14 22:58:13;;;;;;;;;5.50;4.50;;;;;;;;4991309;28;8803;-67
2023/05/14 23:00:38;;;;;;;;;5.50;4.00;;;;;;;;4991014;28;8905;-68
2023/05/14 23:03:04;;;;;;;;;8.00;5.00;;;;;;;;4989789;28;8827;-67
2023/05/14 23:05:29;;;;;;;;;7.25;5.00;;;;;;;;4989804;28;8818;-67
2023/05/14 23:07:54;;;;;;;;;6.50;6.50;;;;;;;;4990534;28;8795;-67